createdAt,value
2018-01-30T00:00:31.156Z,5.50
2018-01-30T00:02:58.745Z,5.40
2018-01-30T00:05:26.165Z,5.40
2018-01-30T00:07:53.665Z,5.40
2018-01-30T00:10:21.333Z,5.40
2018-01-30T00:12:48.782Z,5.40
2018-01-30T00:15:16.345Z,5.30
2018-01-30T00:17:43.770Z,5.30
2018-01-30T00:20:11.261Z,5.30
2018-01-30T00:22:38.745Z,5.30
2018-01-30T00:25:06.169Z,5.30
2018-01-30T00:27:33.633Z,5.20
2018-01-30T00:30:01.266Z,5.20
2018-01-30T00:32:28.697Z,5.10
2018-01-30T00:34:56.322Z,5.10
2018-01-30T00:37:23.773Z,5.10
2018-01-30T00:39:51.238Z,5.10
2018-01-30T00:42:18.657Z,5.10
2018-01-30T00:44:46.087Z,5.10
2018-01-30T00:47:13.604Z,5.10
2018-01-30T00:49:41.067Z,5.00
2018-01-30T00:52:08.553Z,5.00
2018-01-30T00:54:35.974Z,5.00
2018-01-30T00:57:03.393Z,5.00
2018-01-30T00:59:30.813Z,4.90
2018-01-30T01:01:58.356Z,4.90
2018-01-30T01:04:25.986Z,4.90
2018-01-30T01:06:53.410Z,4.90
2018-01-30T01:09:20.833Z,4.90
2018-01-30T01:11:48.494Z,4.80
2018-01-30T01:14:15.918Z,4.90
2018-01-30T01:16:43.342Z,4.80
2018-01-30T01:19:10.756Z,4.80
2018-01-30T01:21:38.222Z,4.70
2018-01-30T01:24:05.781Z,4.70
2018-01-30T01:26:33.201Z,4.80
2018-01-30T01:29:00.697Z,4.70
2018-01-30T01:31:28.154Z,4.70
2018-01-30T01:33:55.912Z,4.70
2018-01-30T01:36:23.377Z,4.70
2018-01-30T01:38:50.837Z,4.70
2018-01-30T01:41:18.469Z,4.80
2018-01-30T01:43:45.884Z,4.70
2018-01-30T01:46:13.517Z,4.70
2018-01-30T01:48:41.276Z,4.60
2018-01-30T01:51:08.697Z,4.60
2018-01-30T01:53:36.224Z,4.60
2018-01-30T01:56:03.833Z,4.60
2018-01-30T01:58:32.234Z,4.50
2018-01-30T02:00:59.800Z,4.50
2018-01-30T02:03:27.540Z,4.50
2018-01-30T02:05:55.017Z,4.40
2018-01-30T02:11:13.571Z,4.40
2018-01-30T02:13:41.060Z,4.40
2018-01-30T02:16:08.757Z,4.40
2018-01-30T02:18:36.183Z,4.40
2018-01-30T02:21:03.653Z,4.30
2018-01-30T02:23:31.108Z,4.30
2018-01-30T02:25:58.659Z,4.30
2018-01-30T02:28:26.111Z,4.30
2018-01-30T02:30:53.550Z,4.30
2018-01-30T02:33:20.975Z,4.30
2018-01-30T02:35:48.491Z,4.30
2018-01-30T02:38:16.130Z,4.20
2018-01-30T02:40:43.558Z,4.30
2018-01-30T02:43:11.783Z,4.30
2018-01-30T02:45:39.240Z,4.30
2018-01-30T02:48:07.009Z,4.20
2018-01-30T02:50:34.660Z,4.20
2018-01-30T02:53:02.089Z,4.20
2018-01-30T02:55:29.687Z,4.20
2018-01-30T02:57:57.115Z,4.10
2018-01-30T03:00:24.605Z,4.10
2018-01-30T03:02:52.235Z,4.10
2018-01-30T03:05:19.736Z,4.10
2018-01-30T03:07:47.184Z,4.10
2018-01-30T03:10:14.639Z,4.10
2018-01-30T03:12:42.070Z,4.10
2018-01-30T03:15:09.660Z,4.10
2018-01-30T03:17:37.299Z,4.00
2018-01-30T03:20:04.727Z,4.00
2018-01-30T03:22:32.914Z,4.00
2018-01-30T03:25:00.411Z,4.00
2018-01-30T03:27:27.871Z,4.00
2018-01-30T03:29:55.297Z,4.00
2018-01-30T03:32:22.736Z,4.00
2018-01-30T03:34:50.252Z,3.90
2018-01-30T03:37:17.829Z,3.90
2018-01-30T03:39:45.364Z,3.80
2018-01-30T03:42:12.804Z,3.90
2018-01-30T03:44:40.288Z,3.90
2018-01-30T03:47:07.751Z,3.90
2018-01-30T03:49:35.204Z,3.90
2018-01-30T03:52:02.644Z,4.00
2018-01-30T03:54:30.143Z,3.90
2018-01-30T03:56:57.575Z,3.90
2018-01-30T03:59:25.131Z,3.90
2018-01-30T04:01:52.586Z,3.90
2018-01-30T04:04:20.021Z,3.90
2018-01-30T04:06:47.456Z,3.90
2018-01-30T04:09:14.883Z,3.90
2018-01-30T04:11:42.323Z,3.90
2018-01-30T04:14:09.871Z,3.90
2018-01-30T04:16:37.335Z,3.90
2018-01-30T04:19:04.768Z,3.80
2018-01-30T04:21:32.256Z,3.80
2018-01-30T04:23:59.715Z,3.80
2018-01-30T04:26:27.166Z,3.80
2018-01-30T04:28:54.710Z,3.80
2018-01-30T04:31:22.392Z,3.70
2018-01-30T04:33:49.822Z,3.80
2018-01-30T04:36:17.304Z,3.70
2018-01-30T04:38:45.076Z,3.70
2018-01-30T04:41:12.507Z,3.70
2018-01-30T04:43:39.938Z,3.60
2018-01-30T04:46:08.268Z,3.70
2018-01-30T04:48:35.828Z,3.70
2018-01-30T04:51:03.285Z,3.70
2018-01-30T04:53:30.727Z,3.70
2018-01-30T04:55:58.196Z,3.70
2018-01-30T04:58:25.655Z,3.70
2018-01-30T05:00:53.096Z,3.80
2018-01-30T05:03:20.571Z,3.80
2018-01-30T05:05:48.005Z,3.80
2018-01-30T05:08:15.436Z,3.80
2018-01-30T05:10:42.942Z,3.80
2018-01-30T05:13:10.378Z,3.90
2018-01-30T05:15:37.812Z,3.90
2018-01-30T05:18:05.319Z,3.90
2018-01-30T05:20:33.075Z,3.90
2018-01-30T05:23:00.723Z,3.90
2018-01-30T05:25:28.217Z,3.80
2018-01-30T05:27:55.674Z,3.90
2018-01-30T05:30:23.223Z,3.90
2018-01-30T05:32:50.654Z,3.90
2018-01-30T05:35:18.135Z,3.90
2018-01-30T05:37:45.781Z,3.90
2018-01-30T05:40:13.271Z,4.00
2018-01-30T05:42:40.719Z,3.90
2018-01-30T05:45:08.195Z,4.00
2018-01-30T05:47:35.732Z,4.00
2018-01-30T05:50:03.192Z,3.90
2018-01-30T05:52:30.652Z,3.90
2018-01-30T05:54:58.095Z,3.90
2018-01-30T05:57:25.528Z,4.00
2018-01-30T05:59:52.959Z,3.90
2018-01-30T06:02:20.396Z,3.80
2018-01-30T06:04:47.836Z,3.80
2018-01-30T06:07:15.264Z,3.80
2018-01-30T06:09:42.690Z,3.70
2018-01-30T06:12:10.936Z,3.80
2018-01-30T06:14:38.692Z,3.80
2018-01-30T06:17:06.124Z,3.80
2018-01-30T06:19:33.561Z,3.80
2018-01-30T06:22:01.060Z,3.80
2018-01-30T06:24:28.826Z,3.70
2018-01-30T06:26:56.283Z,3.70
2018-01-30T06:29:23.743Z,3.70
2018-01-30T06:31:51.176Z,3.70
2018-01-30T06:34:18.612Z,3.70
2018-01-30T06:36:46.048Z,3.80
2018-01-30T06:39:13.575Z,3.70
2018-01-30T06:41:41.035Z,3.70
2018-01-30T06:44:09.291Z,3.70
2018-01-30T06:46:36.779Z,3.70
2018-01-30T06:49:04.263Z,3.70
2018-01-30T06:51:31.699Z,3.70
2018-01-30T06:53:59.245Z,3.60
2018-01-30T06:56:26.880Z,3.60
2018-01-30T06:58:54.469Z,3.60
2018-01-30T07:01:22.231Z,3.60
2018-01-30T07:03:49.668Z,3.60
2018-01-30T07:06:17.152Z,3.60
2018-01-30T07:08:44.790Z,3.60
2018-01-30T07:11:12.377Z,3.50
2018-01-30T07:13:40.139Z,3.50
2018-01-30T07:16:07.775Z,3.50
2018-01-30T07:18:35.351Z,3.60
2018-01-30T07:21:02.783Z,3.50
2018-01-30T07:23:30.216Z,3.50
2018-01-30T07:25:57.737Z,3.60
2018-01-30T07:28:25.171Z,3.50
2018-01-30T07:30:52.603Z,3.50
2018-01-30T07:33:20.347Z,3.50
2018-01-30T07:35:47.876Z,3.50
2018-01-30T07:38:15.304Z,3.60
2018-01-30T07:40:42.739Z,3.70
2018-01-30T07:43:10.175Z,3.70
2018-01-30T07:45:37.640Z,3.80
2018-01-30T07:48:05.092Z,3.80
2018-01-30T07:50:32.529Z,3.90
2018-01-30T07:52:59.988Z,3.90
2018-01-30T07:55:27.536Z,3.90
2018-01-30T07:57:55.176Z,3.90
2018-01-30T08:00:22.667Z,3.90
2018-01-30T08:02:50.215Z,3.90
2018-01-30T08:05:17.860Z,3.90
2018-01-30T08:07:45.445Z,3.90
2018-01-30T08:10:12.895Z,3.90
2018-01-30T08:12:40.537Z,3.90
2018-01-30T08:15:07.967Z,3.90
2018-01-30T08:17:36.172Z,3.80
2018-01-30T08:20:03.608Z,3.80
2018-01-30T08:22:31.031Z,3.80
2018-01-30T08:24:58.461Z,3.90
2018-01-30T08:27:26.023Z,4.00
2018-01-30T08:29:53.457Z,4.00
2018-01-30T08:32:20.883Z,4.00
2018-01-30T08:34:48.703Z,4.10
2018-01-30T08:37:16.140Z,4.20
2018-01-30T08:39:43.568Z,4.30
2018-01-30T08:42:10.995Z,4.30
2018-01-30T08:44:38.428Z,4.40
2018-01-30T08:47:05.902Z,4.50
2018-01-30T08:49:33.446Z,4.50
2018-01-30T08:52:01.221Z,4.50
2018-01-30T08:54:28.859Z,4.60
2018-01-30T08:56:56.444Z,4.60
2018-01-30T08:59:23.880Z,4.60
2018-01-30T09:01:51.310Z,4.60
2018-01-30T09:04:18.749Z,4.70
2018-01-30T09:06:46.276Z,4.70
2018-01-30T09:09:14.085Z,4.80
2018-01-30T09:11:41.469Z,4.80
2018-01-30T09:14:08.951Z,4.90
2018-01-30T09:16:36.387Z,4.90
2018-01-30T09:19:03.876Z,4.90
2018-01-30T09:21:31.631Z,4.90
2018-01-30T09:23:59.115Z,5.00
2018-01-30T09:26:26.502Z,5.00
2018-01-30T09:28:54.002Z,5.00
2018-01-30T09:31:21.459Z,5.10
2018-01-30T09:33:49.108Z,5.10
2018-01-30T09:36:16.543Z,5.20
2018-01-30T09:38:44.142Z,5.20
2018-01-30T09:41:11.584Z,5.20
2018-01-30T09:43:39.072Z,5.30
2018-01-30T09:46:06.503Z,5.30
2018-01-30T09:48:33.949Z,5.30
2018-01-30T09:51:01.379Z,5.30
2018-01-30T09:53:28.820Z,5.30
2018-01-30T09:55:56.251Z,5.30
2018-01-30T09:58:23.692Z,5.20
2018-01-30T10:00:51.267Z,5.30
2018-01-30T10:03:18.699Z,5.30
2018-01-30T10:05:46.191Z,5.40
2018-01-30T10:08:13.829Z,5.50
2018-01-30T10:10:41.311Z,5.40
2018-01-30T10:13:08.743Z,5.50
2018-01-30T10:15:36.323Z,5.60
2018-01-30T10:18:03.797Z,5.80
2018-01-30T10:20:31.451Z,5.90
2018-01-30T10:22:58.888Z,6.20
2018-01-30T10:25:26.360Z,6.40
2018-01-30T10:27:53.896Z,6.50
2018-01-30T10:30:21.327Z,6.40
2018-01-30T10:32:48.761Z,6.30
2018-01-30T10:35:16.186Z,6.40
2018-01-30T10:37:43.625Z,6.50
2018-01-30T10:40:11.211Z,6.50
2018-01-30T10:42:38.659Z,6.40
2018-01-30T10:45:06.310Z,6.30
2018-01-30T10:47:33.788Z,6.40
2018-01-30T10:50:01.373Z,6.20
2018-01-30T10:52:28.805Z,6.30
2018-01-30T10:54:56.244Z,6.30
2018-01-30T10:57:23.715Z,6.30
2018-01-30T10:59:51.150Z,6.40
2018-01-30T11:02:18.583Z,6.50
2018-01-30T11:04:46.828Z,6.60
2018-01-30T11:07:14.284Z,6.60
2018-01-30T11:09:41.715Z,6.50
2018-01-30T11:12:09.261Z,6.50
2018-01-30T11:14:36.844Z,6.40
2018-01-30T11:17:04.543Z,6.40
2018-01-30T11:19:32.072Z,6.50
2018-01-30T11:21:59.500Z,6.50
2018-01-30T11:24:26.940Z,6.60
2018-01-30T11:26:54.456Z,6.70
2018-01-30T11:29:21.979Z,6.80
2018-01-30T11:31:49.544Z,6.80
2018-01-30T11:34:17.027Z,6.90
2018-01-30T11:36:44.454Z,6.90
2018-01-30T11:39:11.941Z,7.00
2018-01-30T11:41:39.379Z,6.80
2018-01-30T11:44:06.963Z,6.80
2018-01-30T11:46:34.415Z,6.70
2018-01-30T11:49:02.052Z,6.70
2018-01-30T11:51:29.483Z,6.80
2018-01-30T11:53:57.692Z,7.00
2018-01-30T11:56:25.346Z,6.90
2018-01-30T11:58:52.832Z,7.10
2018-01-30T12:01:20.382Z,7.20
2018-01-30T12:03:48.025Z,7.30
2018-01-30T12:06:15.607Z,7.40
2018-01-30T12:08:43.247Z,7.40
2018-01-30T12:11:10.835Z,7.20
2018-01-30T12:13:38.333Z,7.20
2018-01-30T12:16:05.725Z,7.10
2018-01-30T12:18:33.155Z,6.90
2018-01-30T12:21:00.663Z,6.90
2018-01-30T12:23:28.120Z,6.80
2018-01-30T12:25:55.760Z,6.80
2018-01-30T12:28:23.250Z,6.80
2018-01-30T12:30:50.707Z,6.80
2018-01-30T12:33:18.191Z,6.70
2018-01-30T12:35:45.679Z,6.70
2018-01-30T12:38:13.179Z,6.70
2018-01-30T12:40:40.633Z,6.60
2018-01-30T12:43:08.065Z,6.60
2018-01-30T12:45:35.547Z,6.60
2018-01-30T12:48:03.009Z,6.60
2018-01-30T12:50:30.444Z,6.50
2018-01-30T12:52:57.876Z,6.60
2018-01-30T12:55:25.306Z,6.50
2018-01-30T12:57:52.848Z,6.50
2018-01-30T13:00:20.291Z,6.50
2018-01-30T13:02:48.663Z,6.60
2018-01-30T13:05:16.158Z,6.50
2018-01-30T13:07:43.899Z,6.60
2018-01-30T13:10:11.364Z,6.70
2018-01-30T13:35:03.076Z,6.60
2018-01-30T13:37:30.648Z,6.60
2018-01-30T13:39:58.093Z,6.60
2018-01-30T13:42:25.536Z,6.60
2018-01-30T13:44:53.024Z,6.70
2018-01-30T13:47:20.792Z,6.90
2018-01-30T13:49:49.000Z,6.90
2018-01-30T13:52:17.199Z,6.90
2018-01-30T13:54:44.691Z,6.90
2018-01-30T13:57:12.133Z,6.90
2018-01-30T13:59:39.568Z,7.00
2018-01-30T14:02:06.995Z,7.00
2018-01-30T14:04:34.527Z,7.00
2018-01-30T14:07:01.984Z,7.00
2018-01-30T14:09:29.619Z,6.90
2018-01-30T14:11:57.104Z,6.90
2018-01-30T14:14:24.551Z,7.10
2018-01-30T14:16:52.019Z,7.00
2018-01-30T14:19:19.584Z,6.90
2018-01-30T14:21:47.019Z,6.80
2018-01-30T14:24:14.491Z,6.70
2018-01-30T14:26:41.951Z,6.80
2018-01-30T14:29:09.404Z,6.80
2018-01-30T14:31:36.871Z,6.90
2018-01-30T14:34:04.317Z,6.90
2018-01-30T14:36:31.764Z,6.80
2018-01-30T14:38:59.444Z,6.80
2018-01-30T14:41:26.883Z,6.70
2018-01-30T14:43:54.375Z,6.70
2018-01-30T14:46:21.808Z,6.50
2018-01-30T14:48:49.295Z,6.50
2018-01-30T14:51:16.748Z,6.50
2018-01-30T14:53:44.599Z,6.40
2018-01-30T14:56:12.032Z,6.40
2018-01-30T14:58:39.458Z,6.40
2018-01-30T15:01:06.986Z,6.40
2018-01-30T15:03:34.410Z,6.30
2018-01-30T15:06:01.897Z,6.30
2018-01-30T15:08:29.530Z,6.40
2018-01-30T15:10:56.999Z,6.40
2018-01-30T15:13:24.522Z,6.40
2018-01-30T15:15:51.975Z,6.30
2018-01-30T15:18:19.489Z,6.30
2018-01-30T15:20:46.938Z,6.30
2018-01-30T15:23:14.380Z,6.30
2018-01-30T15:25:41.833Z,6.40
2018-01-30T15:28:09.500Z,6.50
2018-01-30T15:30:36.973Z,6.50
2018-01-30T15:33:04.420Z,6.50
2018-01-30T15:35:31.863Z,6.50
2018-01-30T15:37:59.459Z,6.40
2018-01-30T15:40:26.918Z,6.40
2018-01-30T15:42:54.360Z,6.30
2018-01-30T15:45:21.835Z,6.30
2018-01-30T15:47:49.595Z,6.20
2018-01-30T15:50:17.043Z,6.20
2018-01-30T15:52:44.695Z,6.10
2018-01-30T15:55:12.168Z,6.00
2018-01-30T15:57:39.612Z,5.90
2018-01-30T16:00:07.131Z,5.90
2018-01-30T16:02:34.652Z,5.80
2018-01-30T16:05:02.318Z,5.60
2018-01-30T16:07:29.789Z,5.60
2018-01-30T16:09:57.330Z,5.50
2018-01-30T16:12:24.977Z,5.40
2018-01-30T16:14:52.642Z,5.40
2018-01-30T16:17:20.320Z,5.40
2018-01-30T16:19:47.753Z,5.30
2018-01-30T16:22:15.211Z,5.20
2018-01-30T16:24:42.689Z,5.20
2018-01-30T16:27:10.092Z,5.10
2018-01-30T16:29:37.527Z,5.00
2018-01-30T16:32:05.077Z,5.00
2018-01-30T16:34:32.542Z,5.00
2018-01-30T16:36:59.955Z,4.90
2018-01-30T16:39:27.388Z,4.90
2018-01-30T16:41:54.899Z,4.80
2018-01-30T16:44:22.364Z,4.70
2018-01-30T16:46:49.807Z,4.60
2018-01-30T16:49:17.478Z,4.50
2018-01-30T16:51:44.963Z,4.50
2018-01-30T16:54:12.408Z,4.40
2018-01-30T16:56:39.857Z,4.40
2018-01-30T16:59:07.412Z,4.40
2018-01-30T17:01:34.870Z,4.40
2018-01-30T17:04:02.637Z,4.40
2018-01-30T17:06:30.406Z,4.30
2018-01-30T17:08:58.050Z,4.30
2018-01-30T17:11:25.529Z,4.20
2018-01-30T17:13:53.083Z,4.10
2018-01-30T17:16:20.719Z,4.10
2018-01-30T17:18:48.251Z,4.10
2018-01-30T17:21:15.767Z,4.00
2018-01-30T17:23:43.409Z,3.90
2018-01-30T17:26:10.895Z,3.90
2018-01-30T17:28:38.328Z,3.80
2018-01-30T17:31:05.908Z,3.80
2018-01-30T17:33:33.340Z,3.70
2018-01-30T17:36:00.779Z,3.70
2018-01-30T17:38:28.223Z,3.70
2018-01-30T17:40:55.744Z,3.60
2018-01-30T17:43:23.380Z,3.60
2018-01-30T17:45:50.816Z,3.60
2018-01-30T17:48:18.421Z,3.50
2018-01-30T17:50:46.052Z,3.50
2018-01-30T17:53:13.511Z,3.50
2018-01-30T17:55:40.995Z,3.40
2018-01-30T17:58:08.551Z,3.40
2018-01-30T18:00:35.984Z,3.40
2018-01-30T18:03:03.430Z,3.40
2018-01-30T18:05:30.928Z,3.30
2018-01-30T18:07:58.562Z,3.30
2018-01-30T18:10:26.055Z,3.30
2018-01-30T18:12:53.503Z,3.30
2018-01-30T18:15:20.975Z,3.20
2018-01-30T18:17:48.523Z,3.10
2018-01-30T18:20:15.989Z,3.10
2018-01-30T18:22:43.442Z,3.10
2018-01-30T18:25:10.880Z,3.10
2018-01-30T18:27:38.334Z,3.20
2018-01-30T18:30:05.763Z,3.20
2018-01-30T18:32:33.211Z,3.10
2018-01-30T18:35:00.652Z,3.10
2018-01-30T18:37:28.183Z,3.20
2018-01-30T18:39:55.624Z,3.10
2018-01-30T18:42:23.108Z,3.10
2018-01-30T18:44:50.727Z,3.10
2018-01-30T18:47:18.211Z,3.00
2018-01-30T18:49:45.652Z,3.10
2018-01-30T18:52:13.095Z,3.00
2018-01-30T18:54:40.653Z,2.90
2018-01-30T18:57:08.071Z,2.90
2018-01-30T18:59:36.531Z,2.80
2018-01-30T19:02:03.984Z,2.80
2018-01-30T19:04:31.640Z,2.80
2018-01-30T19:06:59.119Z,2.80
2018-01-30T19:09:26.572Z,2.70
2018-01-30T19:11:54.038Z,2.70
2018-01-30T19:14:21.503Z,2.70
2018-01-30T19:16:48.944Z,2.60
2018-01-30T19:19:16.512Z,2.60
2018-01-30T19:21:44.148Z,2.60
2018-01-30T19:24:11.801Z,2.50
2018-01-30T19:26:39.396Z,2.50
2018-01-30T19:29:07.207Z,2.50
2018-01-30T19:31:34.643Z,2.50
2018-01-30T19:34:02.092Z,2.50
2018-01-30T19:36:29.635Z,2.50
2018-01-30T19:38:57.401Z,2.50
2018-01-30T19:41:24.844Z,2.50
2018-01-30T19:43:52.319Z,2.50
2018-01-30T19:46:19.752Z,2.60
2018-01-30T19:48:47.200Z,2.60
2018-01-30T19:51:14.634Z,2.50
2018-01-30T19:53:42.082Z,2.60
2018-01-30T19:56:09.517Z,2.50
2018-01-30T19:58:36.959Z,2.50
2018-01-30T20:01:04.397Z,2.50
2018-01-30T20:03:31.895Z,2.50
2018-01-30T20:05:59.346Z,2.50
2018-01-30T20:08:26.795Z,2.50
2018-01-30T20:10:54.356Z,2.50
2018-01-30T20:13:22.111Z,2.40
2018-01-30T20:15:49.596Z,2.40
2018-01-30T20:18:17.222Z,2.30
2018-01-30T20:20:45.608Z,2.20
2018-01-30T20:23:13.099Z,2.20
2018-01-30T20:25:40.535Z,2.30
2018-01-30T20:28:08.323Z,2.30
2018-01-30T20:30:35.703Z,2.40
2018-01-30T20:33:03.927Z,2.40
2018-01-30T20:35:31.382Z,2.30
2018-01-30T20:37:58.843Z,2.40
2018-01-30T20:40:26.292Z,2.40
2018-01-30T20:42:53.723Z,2.40
2018-01-30T20:45:21.167Z,2.40
2018-01-30T20:47:48.608Z,2.50
2018-01-30T20:50:16.747Z,2.50
2018-01-30T20:52:44.188Z,2.50
2018-01-30T20:55:11.639Z,2.50
2018-01-30T20:57:39.068Z,2.50
2018-01-30T21:00:06.590Z,2.40
2018-01-30T21:02:34.219Z,2.50
2018-01-30T21:05:01.808Z,2.40
2018-01-30T21:07:29.238Z,2.40
2018-01-30T21:09:56.696Z,2.40
2018-01-30T21:12:24.126Z,2.40
2018-01-30T21:14:51.588Z,2.50
2018-01-30T21:17:19.922Z,2.50
2018-01-30T21:19:47.367Z,2.50
2018-01-30T21:22:14.936Z,2.60
2018-01-30T21:24:42.380Z,2.60
2018-01-30T21:27:10.031Z,2.60
2018-01-30T21:29:37.611Z,2.60
2018-01-30T21:32:05.040Z,2.60
2018-01-30T21:34:32.488Z,2.70
2018-01-30T21:36:59.927Z,2.80
2018-01-30T21:39:27.371Z,2.90
2018-01-30T21:41:54.807Z,3.00
2018-01-30T21:44:22.359Z,3.10
2018-01-30T21:46:49.838Z,3.10
2018-01-30T21:49:17.279Z,3.10
2018-01-30T21:51:44.715Z,3.20
2018-01-30T21:54:18.370Z,3.30
2018-01-30T21:56:39.636Z,3.30
2018-01-30T21:59:07.071Z,3.40
2018-01-30T22:01:34.511Z,3.50
2018-01-30T22:04:02.020Z,3.60
2018-01-30T22:06:29.676Z,3.70
2018-01-30T22:08:57.127Z,3.70
2018-01-30T22:11:24.616Z,3.80
2018-01-30T22:13:52.068Z,3.80
2018-01-30T22:16:19.516Z,3.90
2018-01-30T22:18:47.016Z,3.90
2018-01-30T22:21:14.528Z,4.00
2018-01-30T22:23:41.991Z,4.10
2018-01-30T22:26:09.435Z,4.10
2018-01-30T22:28:36.871Z,4.20
2018-01-30T22:31:04.311Z,4.30
2018-01-30T22:33:31.743Z,4.40
2018-01-30T22:35:59.183Z,4.40
2018-01-30T22:38:26.620Z,4.50
2018-01-30T22:40:54.067Z,4.50
2018-01-30T22:43:21.587Z,4.50
2018-01-30T22:45:49.942Z,4.50
